sensor_id;sensor_type;location;lat;lon;timestamp;temperature;humidity
53645;DHT22;39547;45.554;12.068;2022-11-25T00:05:38;6.40;90.10
53645;DHT22;39547;45.554;12.068;2022-11-25T00:11:41;6.40;90.20
53645;DHT22;39547;45.554;12.068;2022-11-25T00:17:43;6.40;90.30
53645;DHT22;39547;45.554;12.068;2022-11-25T00:23:49;6.50;90.30
53645;DHT22;39547;45.554;12.068;2022-11-25T00:29:51;6.50;90.30
53645;DHT22;39547;45.554;12.068;2022-11-25T00:35:53;6.50;90.20
53645;DHT22;39547;45.554;12.068;2022-11-25T00:41:54;6.50;90.10
53645;DHT22;39547;45.554;12.068;2022-11-25T00:48:14;6.50;90.10
53645;DHT22;39547;45.554;12.068;2022-11-25T00:54:16;6.50;90.30
53645;DHT22;39547;45.554;12.068;2022-11-25T01:00:17;6.60;90.10
53645;DHT22;39547;45.554;12.068;2022-11-25T01:06:20;6.60;90.00
53645;DHT22;39547;45.554;12.068;2022-11-25T01:12:22;6.60;90.20
53645;DHT22;39547;45.554;12.068;2022-11-25T01:18:27;6.60;90.30
53645;DHT22;39547;45.554;12.068;2022-11-25T01:24:28;6.60;90.40
53645;DHT22;39547;45.554;12.068;2022-11-25T01:30:30;6.60;90.10
53645;DHT22;39547;45.554;12.068;2022-11-25T01:36:31;6.60;90.40
53645;DHT22;39547;45.554;12.068;2022-11-25T01:42:33;6.60;90.30
53645;DHT22;39547;45.554;12.068;2022-11-25T01:54:58;6.60;90.50
53645;DHT22;39547;45.554;12.068;2022-11-25T02:01:00;6.60;90.50
53645;DHT22;39547;45.554;12.068;2022-11-25T02:07:23;6.60;90.50
53645;DHT22;39547;45.554;12.068;2022-11-25T02:13:27;6.60;90.60
53645;DHT22;39547;45.554;12.068;2022-11-25T02:20:17;6.70;90.60
53645;DHT22;39547;45.554;12.068;2022-11-25T02:26:00;6.60;90.60
53645;DHT22;39547;45.554;12.068;2022-11-25T02:32:03;6.70;90.50
53645;DHT22;39547;45.554;12.068;2022-11-25T02:38:14;6.70;90.50
53645;DHT22;39547;45.554;12.068;2022-11-25T02:44:16;6.60;90.50
53645;DHT22;39547;45.554;12.068;2022-11-25T02:50:18;6.70;90.30
53645;DHT22;39547;45.554;12.068;2022-11-25T02:56:23;6.60;90.40
53645;DHT22;39547;45.554;12.068;2022-11-25T03:02:25;6.70;90.30
53645;DHT22;39547;45.554;12.068;2022-11-25T03:08:30;6.70;90.50
53645;DHT22;39547;45.554;12.068;2022-11-25T03:14:32;6.70;90.30
53645;DHT22;39547;45.554;12.068;2022-11-25T03:20:35;6.60;90.10
53645;DHT22;39547;45.554;12.068;2022-11-25T03:26:37;6.60;90.30
53645;DHT22;39547;45.554;12.068;2022-11-25T03:32:39;6.50;90.60
53645;DHT22;39547;45.554;12.068;2022-11-25T03:38:41;6.50;90.80
53645;DHT22;39547;45.554;12.068;2022-11-25T03:44:43;6.60;90.80
53645;DHT22;39547;45.554;12.068;2022-11-25T03:50:47;6.50;90.70
53645;DHT22;39547;45.554;12.068;2022-11-25T03:56:48;6.50;90.70
53645;DHT22;39547;45.554;12.068;2022-11-25T04:02:50;6.50;90.70
53645;DHT22;39547;45.554;12.068;2022-11-25T04:08:54;6.50;90.70
53645;DHT22;39547;45.554;12.068;2022-11-25T04:14:56;6.50;90.80
53645;DHT22;39547;45.554;12.068;2022-11-25T04:20:58;6.50;90.70
53645;DHT22;39547;45.554;12.068;2022-11-25T04:27:00;6.50;90.50
53645;DHT22;39547;45.554;12.068;2022-11-25T04:33:02;6.40;90.80
53645;DHT22;39547;45.554;12.068;2022-11-25T04:39:04;6.40;90.80
53645;DHT22;39547;45.554;12.068;2022-11-25T04:45:11;6.40;90.70
53645;DHT22;39547;45.554;12.068;2022-11-25T04:51:13;6.40;90.70
53645;DHT22;39547;45.554;12.068;2022-11-25T04:57:15;6.40;90.70
53645;DHT22;39547;45.554;12.068;2022-11-25T05:03:19;6.40;90.70
53645;DHT22;39547;45.554;12.068;2022-11-25T05:09:21;6.30;90.50
53645;DHT22;39547;45.554;12.068;2022-11-25T05:15:32;6.30;90.50
53645;DHT22;39547;45.554;12.068;2022-11-25T05:21:33;6.30;90.20
53645;DHT22;39547;45.554;12.068;2022-11-25T05:27:35;6.20;89.40
53645;DHT22;39547;45.554;12.068;2022-11-25T05:33:42;6.20;90.00
53645;DHT22;39547;45.554;12.068;2022-11-25T05:39:44;6.20;90.00
53645;DHT22;39547;45.554;12.068;2022-11-25T05:46:08;6.30;90.40
53645;DHT22;39547;45.554;12.068;2022-11-25T05:52:14;6.30;90.30
53645;DHT22;39547;45.554;12.068;2022-11-25T05:58:28;6.30;90.30
53645;DHT22;39547;45.554;12.068;2022-11-25T06:04:32;6.40;90.30
53645;DHT22;39547;45.554;12.068;2022-11-25T06:10:38;6.40;90.30
53645;DHT22;39547;45.554;12.068;2022-11-25T06:16:40;6.40;90.30
53645;DHT22;39547;45.554;12.068;2022-11-25T06:22:54;6.30;90.00
53645;DHT22;39547;45.554;12.068;2022-11-25T06:29:02;6.30;90.10
53645;DHT22;39547;45.554;12.068;2022-11-25T06:35:04;6.40;90.30
53645;DHT22;39547;45.554;12.068;2022-11-25T06:41:15;6.30;89.80
53645;DHT22;39547;45.554;12.068;2022-11-25T06:47:17;6.30;90.40
53645;DHT22;39547;45.554;12.068;2022-11-25T06:53:18;6.30;90.40
53645;DHT22;39547;45.554;12.068;2022-11-25T06:59:20;6.40;90.60
53645;DHT22;39547;45.554;12.068;2022-11-25T07:05:22;6.50;90.80
53645;DHT22;39547;45.554;12.068;2022-11-25T07:11:31;6.50;90.60
53645;DHT22;39547;45.554;12.068;2022-11-25T07:17:33;6.50;90.30
53645;DHT22;39547;45.554;12.068;2022-11-25T07:23:35;6.60;90.00
53645;DHT22;39547;45.554;12.068;2022-11-25T07:29:37;6.60;90.50
53645;DHT22;39547;45.554;12.068;2022-11-25T07:35:39;6.70;90.60
53645;DHT22;39547;45.554;12.068;2022-11-25T07:41:40;6.80;90.60
53645;DHT22;39547;45.554;12.068;2022-11-25T07:47:42;6.90;90.10
53645;DHT22;39547;45.554;12.068;2022-11-25T07:53:44;7.00;90.30
53645;DHT22;39547;45.554;12.068;2022-11-25T07:59:46;7.20;90.50
53645;DHT22;39547;45.554;12.068;2022-11-25T08:05:47;7.40;90.80
53645;DHT22;39547;45.554;12.068;2022-11-25T08:11:49;7.60;90.00
53645;DHT22;39547;45.554;12.068;2022-11-25T08:17:51;7.70;89.80
53645;DHT22;39547;45.554;12.068;2022-11-25T08:23:54;7.90;90.10
53645;DHT22;39547;45.554;12.068;2022-11-25T08:29:55;8.10;89.80
53645;DHT22;39547;45.554;12.068;2022-11-25T08:35:57;8.20;89.30
53645;DHT22;39547;45.554;12.068;2022-11-25T08:42:01;8.40;88.80
53645;DHT22;39547;45.554;12.068;2022-11-25T08:48:05;8.60;89.60
53645;DHT22;39547;45.554;12.068;2022-11-25T08:54:07;8.80;90.00
53645;DHT22;39547;45.554;12.068;2022-11-25T09:00:10;9.20;90.20
53645;DHT22;39547;45.554;12.068;2022-11-25T09:06:12;9.40;89.90
53645;DHT22;39547;45.554;12.068;2022-11-25T09:12:14;9.70;89.90
53645;DHT22;39547;45.554;12.068;2022-11-25T09:18:15;9.70;89.70
53645;DHT22;39547;45.554;12.068;2022-11-25T09:24:20;9.70;90.00
53645;DHT22;39547;45.554;12.068;2022-11-25T09:30:22;9.80;90.10
53645;DHT22;39547;45.554;12.068;2022-11-25T09:36:24;10.10;90.20
53645;DHT22;39547;45.554;12.068;2022-11-25T09:55:35;10.60;89.90
53645;DHT22;39547;45.554;12.068;2022-11-25T10:02:08;10.70;89.60
53645;DHT22;39547;45.554;12.068;2022-11-25T10:08:17;10.80;89.70
53645;DHT22;39547;45.554;12.068;2022-11-25T10:20:33;11.10;89.70
53645;DHT22;39547;45.554;12.068;2022-11-25T10:26:37;11.30;89.50
53645;DHT22;39547;45.554;12.068;2022-11-25T10:32:49;11.40;89.50
53645;DHT22;39547;45.554;12.068;2022-11-25T10:39:10;11.50;89.30
53645;DHT22;39547;45.554;12.068;2022-11-25T10:45:12;11.70;89.50
53645;DHT22;39547;45.554;12.068;2022-11-25T10:51:22;11.80;89.10
53645;DHT22;39547;45.554;12.068;2022-11-25T10:57:27;11.90;89.30
53645;DHT22;39547;45.554;12.068;2022-11-25T11:03:29;11.90;89.20
53645;DHT22;39547;45.554;12.068;2022-11-25T11:09:39;12.00;89.00
53645;DHT22;39547;45.554;12.068;2022-11-25T11:15:45;12.10;89.20
53645;DHT22;39547;45.554;12.068;2022-11-25T11:21:48;12.10;89.10
53645;DHT22;39547;45.554;12.068;2022-11-25T11:27:50;12.20;89.10
53645;DHT22;39547;45.554;12.068;2022-11-25T11:40:41;12.30;89.30
53645;DHT22;39547;45.554;12.068;2022-11-25T11:53:57;12.50;89.10
53645;DHT22;39547;45.554;12.068;2022-11-25T11:59:51;12.70;88.60
53645;DHT22;39547;45.554;12.068;2022-11-25T12:05:55;12.90;87.40
53645;DHT22;39547;45.554;12.068;2022-11-25T12:12:03;13.10;87.80
53645;DHT22;39547;45.554;12.068;2022-11-25T12:31:18;13.20;86.80
53645;DHT22;39547;45.554;12.068;2022-11-25T12:49:53;12.90;87.30
53645;DHT22;39547;45.554;12.068;2022-11-25T12:55:58;12.80;88.10
53645;DHT22;39547;45.554;12.068;2022-11-25T13:08:55;12.50;88.90
53645;DHT22;39547;45.554;12.068;2022-11-25T13:21:19;12.40;89.20
53645;DHT22;39547;45.554;12.068;2022-11-25T13:46:48;12.20;89.50
53645;DHT22;39547;45.554;12.068;2022-11-25T13:53:02;12.10;89.60
53645;DHT22;39547;45.554;12.068;2022-11-25T14:05:34;12.00;89.70
53645;DHT22;39547;45.554;12.068;2022-11-25T14:24:45;11.80;89.80
53645;DHT22;39547;45.554;12.068;2022-11-25T14:30:51;11.70;89.80
53645;DHT22;39547;45.554;12.068;2022-11-25T14:37:16;11.70;89.80
53645;DHT22;39547;45.554;12.068;2022-11-25T14:43:22;11.70;89.90
53645;DHT22;39547;45.554;12.068;2022-11-25T14:49:43;11.60;89.80
53645;DHT22;39547;45.554;12.068;2022-11-25T14:55:46;11.40;89.80
53645;DHT22;39547;45.554;12.068;2022-11-25T15:01:53;11.40;89.80
53645;DHT22;39547;45.554;12.068;2022-11-25T15:08:19;11.20;89.90
53645;DHT22;39547;45.554;12.068;2022-11-25T15:14:33;11.20;89.90
53645;DHT22;39547;45.554;12.068;2022-11-25T15:20:35;11.10;90.00
53645;DHT22;39547;45.554;12.068;2022-11-25T15:26:37;11.00;90.10
53645;DHT22;39547;45.554;12.068;2022-11-25T15:32:38;10.90;90.20
53645;DHT22;39547;45.554;12.068;2022-11-25T15:38:42;10.90;90.30
53645;DHT22;39547;45.554;12.068;2022-11-25T15:44:52;10.80;90.40
53645;DHT22;39547;45.554;12.068;2022-11-25T15:57:34;10.60;90.30
53645;DHT22;39547;45.554;12.068;2022-11-25T16:03:35;10.50;90.40
53645;DHT22;39547;45.554;12.068;2022-11-25T16:09:49;10.30;90.00
53645;DHT22;39547;45.554;12.068;2022-11-25T16:22:01;10.10;90.30
53645;DHT22;39547;45.554;12.068;2022-11-25T16:28:03;10.00;90.50
53645;DHT22;39547;45.554;12.068;2022-11-25T16:34:15;10.00;90.50
53645;DHT22;39547;45.554;12.068;2022-11-25T16:40:18;9.90;90.60
53645;DHT22;39547;45.554;12.068;2022-11-25T16:46:19;9.90;90.70
53645;DHT22;39547;45.554;12.068;2022-11-25T16:52:23;9.80;90.60
53645;DHT22;39547;45.554;12.068;2022-11-25T16:58:25;9.70;90.70
53645;DHT22;39547;45.554;12.068;2022-11-25T17:04:26;9.70;90.70
53645;DHT22;39547;45.554;12.068;2022-11-25T17:10:28;9.60;90.80
53645;DHT22;39547;45.554;12.068;2022-11-25T17:16:29;9.50;90.80
53645;DHT22;39547;45.554;12.068;2022-11-25T17:22:31;9.50;90.80
53645;DHT22;39547;45.554;12.068;2022-11-25T17:28:33;9.40;90.70
53645;DHT22;39547;45.554;12.068;2022-11-25T17:34:35;9.30;90.70
53645;DHT22;39547;45.554;12.068;2022-11-25T17:40:37;9.30;90.90
53645;DHT22;39547;45.554;12.068;2022-11-25T17:46:38;9.30;90.80
53645;DHT22;39547;45.554;12.068;2022-11-25T17:52:39;9.30;90.80
53645;DHT22;39547;45.554;12.068;2022-11-25T17:58:41;9.20;90.80
53645;DHT22;39547;45.554;12.068;2022-11-25T18:04:42;9.20;90.90
53645;DHT22;39547;45.554;12.068;2022-11-25T18:10:45;9.20;90.90
53645;DHT22;39547;45.554;12.068;2022-11-25T18:16:47;9.20;90.70
53645;DHT22;39547;45.554;12.068;2022-11-25T18:22:50;9.20;90.80
53645;DHT22;39547;45.554;12.068;2022-11-25T18:28:52;9.10;90.80
53645;DHT22;39547;45.554;12.068;2022-11-25T18:34:53;9.00;90.90
53645;DHT22;39547;45.554;12.068;2022-11-25T18:40:55;9.00;90.90
53645;DHT22;39547;45.554;12.068;2022-11-25T18:46:56;8.90;90.90
53645;DHT22;39547;45.554;12.068;2022-11-25T18:52:58;8.80;90.50
53645;DHT22;39547;45.554;12.068;2022-11-25T18:59:00;8.80;90.50
53645;DHT22;39547;45.554;12.068;2022-11-25T19:05:14;8.70;90.80
53645;DHT22;39547;45.554;12.068;2022-11-25T19:11:18;8.70;90.40
53645;DHT22;39547;45.554;12.068;2022-11-25T19:17:23;8.70;90.70
53645;DHT22;39547;45.554;12.068;2022-11-25T19:23:27;8.60;90.50
53645;DHT22;39547;45.554;12.068;2022-11-25T19:29:33;8.50;90.80
53645;DHT22;39547;45.554;12.068;2022-11-25T19:35:37;8.50;91.00
53645;DHT22;39547;45.554;12.068;2022-11-25T19:41:38;8.40;91.00
53645;DHT22;39547;45.554;12.068;2022-11-25T19:47:42;8.50;91.10
53645;DHT22;39547;45.554;12.068;2022-11-25T19:53:44;8.40;91.00
53645;DHT22;39547;45.554;12.068;2022-11-25T19:59:46;8.40;91.00
53645;DHT22;39547;45.554;12.068;2022-11-25T20:05:49;8.40;90.90
53645;DHT22;39547;45.554;12.068;2022-11-25T20:11:50;8.40;90.90
53645;DHT22;39547;45.554;12.068;2022-11-25T20:17:59;8.30;90.80
53645;DHT22;39547;45.554;12.068;2022-11-25T20:24:02;8.30;91.00
53645;DHT22;39547;45.554;12.068;2022-11-25T20:30:21;8.30;91.00
53645;DHT22;39547;45.554;12.068;2022-11-25T20:36:27;8.20;90.90
53645;DHT22;39547;45.554;12.068;2022-11-25T20:42:31;8.20;90.90
53645;DHT22;39547;45.554;12.068;2022-11-25T20:48:33;8.20;90.90
53645;DHT22;39547;45.554;12.068;2022-11-25T20:54:37;8.20;91.00
53645;DHT22;39547;45.554;12.068;2022-11-25T21:00:38;8.20;90.90
53645;DHT22;39547;45.554;12.068;2022-11-25T21:06:40;8.10;89.20
53645;DHT22;39547;45.554;12.068;2022-11-25T21:12:41;8.00;89.60
53645;DHT22;39547;45.554;12.068;2022-11-25T21:18:43;8.00;89.60
53645;DHT22;39547;45.554;12.068;2022-11-25T21:24:44;7.90;90.10
53645;DHT22;39547;45.554;12.068;2022-11-25T21:30:46;7.90;90.30
53645;DHT22;39547;45.554;12.068;2022-11-25T21:36:50;7.90;90.00
53645;DHT22;39547;45.554;12.068;2022-11-25T21:42:52;7.80;90.40
53645;DHT22;39547;45.554;12.068;2022-11-25T21:48:53;7.80;89.20
53645;DHT22;39547;45.554;12.068;2022-11-25T21:54:54;7.80;89.60
53645;DHT22;39547;45.554;12.068;2022-11-25T22:00:58;7.70;89.10
53645;DHT22;39547;45.554;12.068;2022-11-25T22:07:00;7.80;89.80
53645;DHT22;39547;45.554;12.068;2022-11-25T22:13:02;7.80;89.60
53645;DHT22;39547;45.554;12.068;2022-11-25T22:19:04;7.80;90.00
53645;DHT22;39547;45.554;12.068;2022-11-25T22:25:08;7.80;89.90
53645;DHT22;39547;45.554;12.068;2022-11-25T22:31:14;7.80;90.10
53645;DHT22;39547;45.554;12.068;2022-11-25T22:37:19;7.70;87.50
53645;DHT22;39547;45.554;12.068;2022-11-25T22:43:35;7.70;88.50
53645;DHT22;39547;45.554;12.068;2022-11-25T22:49:42;7.70;89.30
53645;DHT22;39547;45.554;12.068;2022-11-25T22:55:45;7.70;89.50
53645;DHT22;39547;45.554;12.068;2022-11-25T23:01:47;7.70;89.70
53645;DHT22;39547;45.554;12.068;2022-11-25T23:07:48;7.70;89.80
53645;DHT22;39547;45.554;12.068;2022-11-25T23:13:50;7.70;90.00
53645;DHT22;39547;45.554;12.068;2022-11-25T23:19:51;7.70;90.10
53645;DHT22;39547;45.554;12.068;2022-11-25T23:25:54;7.70;90.00
53645;DHT22;39547;45.554;12.068;2022-11-25T23:31:56;7.80;90.10
53645;DHT22;39547;45.554;12.068;2022-11-25T23:37:58;7.70;90.10
53645;DHT22;39547;45.554;12.068;2022-11-25T23:44:29;7.70;89.80
53645;DHT22;39547;45.554;12.068;2022-11-25T23:50:32;7.70;89.30
53645;DHT22;39547;45.554;12.068;2022-11-25T23:56:35;7.60;89.20
